sensor_id;sensor_type;location;lat;lon;timestamp;temperature;humidity
44565;DHT22;30275;51.822;-0.326;2022-10-22T00:01:35;14.30;99.90
44565;DHT22;30275;51.822;-0.326;2022-10-22T00:04:02;14.30;99.90
44565;DHT22;30275;51.822;-0.326;2022-10-22T00:06:28;14.20;99.90
44565;DHT22;30275;51.822;-0.326;2022-10-22T00:08:53;14.20;99.90
44565;DHT22;30275;51.822;-0.326;2022-10-22T00:11:19;14.20;99.90
44565;DHT22;30275;51.822;-0.326;2022-10-22T00:13:45;14.20;99.90
44565;DHT22;30275;51.822;-0.326;2022-10-22T00:16:11;14.20;99.90
44565;DHT22;30275;51.822;-0.326;2022-10-22T00:18:38;14.20;99.90
44565;DHT22;30275;51.822;-0.326;2022-10-22T00:21:04;14.20;99.90
44565;DHT22;30275;51.822;-0.326;2022-10-22T00:23:30;14.20;99.90
44565;DHT22;30275;51.822;-0.326;2022-10-22T00:25:55;14.20;99.90
44565;DHT22;30275;51.822;-0.326;2022-10-22T00:28:22;14.20;99.90
44565;DHT22;30275;51.822;-0.326;2022-10-22T00:30:47;14.20;99.90
44565;DHT22;30275;51.822;-0.326;2022-10-22T00:33:19;14.20;99.90
44565;DHT22;30275;51.822;-0.326;2022-10-22T00:35:46;14.20;99.90
44565;DHT22;30275;51.822;-0.326;2022-10-22T00:38:11;14.20;99.90
44565;DHT22;30275;51.822;-0.326;2022-10-22T00:40:37;14.10;99.90
44565;DHT22;30275;51.822;-0.326;2022-10-22T00:43:02;14.20;99.90
44565;DHT22;30275;51.822;-0.326;2022-10-22T00:45:28;14.20;99.90
44565;DHT22;30275;51.822;-0.326;2022-10-22T00:48:15;14.30;99.90
44565;DHT22;30275;51.822;-0.326;2022-10-22T00:51:00;14.30;99.90
44565;DHT22;30275;51.822;-0.326;2022-10-22T00:53:31;14.30;99.90
44565;DHT22;30275;51.822;-0.326;2022-10-22T00:55:59;14.30;99.90
44565;DHT22;30275;51.822;-0.326;2022-10-22T00:58:28;14.40;99.90
44565;DHT22;30275;51.822;-0.326;2022-10-22T01:00:56;14.30;99.90
44565;DHT22;30275;51.822;-0.326;2022-10-22T01:03:22;14.30;99.90
44565;DHT22;30275;51.822;-0.326;2022-10-22T01:05:59;14.30;99.90
44565;DHT22;30275;51.822;-0.326;2022-10-22T01:11:08;14.30;99.90
44565;DHT22;30275;51.822;-0.326;2022-10-22T01:21:46;14.30;99.90
44565;DHT22;30275;51.822;-0.326;2022-10-22T01:27:23;14.20;99.90
44565;DHT22;30275;51.822;-0.326;2022-10-22T01:30:06;14.20;99.90
44565;DHT22;30275;51.822;-0.326;2022-10-22T01:32:37;14.20;99.90
44565;DHT22;30275;51.822;-0.326;2022-10-22T01:35:07;14.20;99.90
44565;DHT22;30275;51.822;-0.326;2022-10-22T01:37:37;14.20;99.90
44565;DHT22;30275;51.822;-0.326;2022-10-22T01:40:06;14.20;99.90
44565;DHT22;30275;51.822;-0.326;2022-10-22T01:42:33;14.20;99.90
44565;DHT22;30275;51.822;-0.326;2022-10-22T01:44:58;14.20;99.90
44565;DHT22;30275;51.822;-0.326;2022-10-22T02:01:47;14.30;99.90
44565;DHT22;30275;51.822;-0.326;2022-10-22T02:03:50;14.20;99.90
44565;DHT22;30275;51.822;-0.326;2022-10-22T02:06:19;14.30;99.90
44565;DHT22;30275;51.822;-0.326;2022-10-22T02:08:46;14.30;99.90
44565;DHT22;30275;51.822;-0.326;2022-10-22T02:11:13;14.20;99.90
44565;DHT22;30275;51.822;-0.326;2022-10-22T02:13:48;14.30;99.90
44565;DHT22;30275;51.822;-0.326;2022-10-22T02:16:32;14.20;99.90
44565;DHT22;30275;51.822;-0.326;2022-10-22T02:19:02;14.20;99.90
44565;DHT22;30275;51.822;-0.326;2022-10-22T02:21:30;14.20;99.90
44565;DHT22;30275;51.822;-0.326;2022-10-22T02:23:56;14.10;99.90
44565;DHT22;30275;51.822;-0.326;2022-10-22T02:26:39;14.00;99.90
44565;DHT22;30275;51.822;-0.326;2022-10-22T02:29:24;14.10;99.90
44565;DHT22;30275;51.822;-0.326;2022-10-22T02:31:51;14.10;99.90
44565;DHT22;30275;51.822;-0.326;2022-10-22T02:34:23;14.00;99.90
44565;DHT22;30275;51.822;-0.326;2022-10-22T02:37:07;14.00;99.90
44565;DHT22;30275;51.822;-0.326;2022-10-22T02:39:34;14.00;99.90
44565;DHT22;30275;51.822;-0.326;2022-10-22T02:42:01;14.00;99.90
44565;DHT22;30275;51.822;-0.326;2022-10-22T02:44:27;13.90;99.90
44565;DHT22;30275;51.822;-0.326;2022-10-22T02:46:53;13.80;99.90
44565;DHT22;30275;51.822;-0.326;2022-10-22T02:49:18;13.90;99.90
44565;DHT22;30275;51.822;-0.326;2022-10-22T02:51:44;13.80;99.90
44565;DHT22;30275;51.822;-0.326;2022-10-22T02:54:09;13.80;99.90
44565;DHT22;30275;51.822;-0.326;2022-10-22T02:56:35;13.80;99.90
44565;DHT22;30275;51.822;-0.326;2022-10-22T02:59:00;13.80;99.90
44565;DHT22;30275;51.822;-0.326;2022-10-22T03:01:26;13.80;99.90
44565;DHT22;30275;51.822;-0.326;2022-10-22T03:03:52;13.80;99.90
44565;DHT22;30275;51.822;-0.326;2022-10-22T03:06:17;13.80;99.90
44565;DHT22;30275;51.822;-0.326;2022-10-22T03:08:43;13.90;99.90
44565;DHT22;30275;51.822;-0.326;2022-10-22T03:11:09;13.80;99.90
44565;DHT22;30275;51.822;-0.326;2022-10-22T03:13:34;13.90;99.90
44565;DHT22;30275;51.822;-0.326;2022-10-22T03:16:00;13.90;99.90
44565;DHT22;30275;51.822;-0.326;2022-10-22T03:18:26;13.90;99.90
44565;DHT22;30275;51.822;-0.326;2022-10-22T03:21:01;13.90;99.90
44565;DHT22;30275;51.822;-0.326;2022-10-22T03:23:28;13.90;99.90
44565;DHT22;30275;51.822;-0.326;2022-10-22T03:25:54;13.90;99.90
44565;DHT22;30275;51.822;-0.326;2022-10-22T03:28:20;13.90;99.90
44565;DHT22;30275;51.822;-0.326;2022-10-22T03:30:46;13.90;99.90
44565;DHT22;30275;51.822;-0.326;2022-10-22T03:33:11;13.90;99.90
44565;DHT22;30275;51.822;-0.326;2022-10-22T03:35:42;14.00;99.90
44565;DHT22;30275;51.822;-0.326;2022-10-22T03:38:08;13.90;99.90
44565;DHT22;30275;51.822;-0.326;2022-10-22T03:40:34;13.90;99.90
44565;DHT22;30275;51.822;-0.326;2022-10-22T03:43:00;14.00;99.90
44565;DHT22;30275;51.822;-0.326;2022-10-22T03:45:25;14.00;99.90
44565;DHT22;30275;51.822;-0.326;2022-10-22T03:47:51;13.90;99.90
44565;DHT22;30275;51.822;-0.326;2022-10-22T03:50:16;13.80;99.90
44565;DHT22;30275;51.822;-0.326;2022-10-22T03:52:42;13.80;99.90
44565;DHT22;30275;51.822;-0.326;2022-10-22T03:55:09;13.80;99.90
44565;DHT22;30275;51.822;-0.326;2022-10-22T03:57:34;13.70;99.90
44565;DHT22;30275;51.822;-0.326;2022-10-22T04:00:00;13.70;99.90
44565;DHT22;30275;51.822;-0.326;2022-10-22T04:02:26;13.70;99.90
44565;DHT22;30275;51.822;-0.326;2022-10-22T04:04:51;13.80;99.90
44565;DHT22;30275;51.822;-0.326;2022-10-22T04:07:17;13.70;99.90
44565;DHT22;30275;51.822;-0.326;2022-10-22T04:09:42;13.70;99.90
44565;DHT22;30275;51.822;-0.326;2022-10-22T04:12:08;13.70;99.90
44565;DHT22;30275;51.822;-0.326;2022-10-22T04:14:34;13.60;99.90
44565;DHT22;30275;51.822;-0.326;2022-10-22T04:17:00;13.60;99.90
44565;DHT22;30275;51.822;-0.326;2022-10-22T04:19:25;13.50;99.90
44565;DHT22;30275;51.822;-0.326;2022-10-22T04:21:51;13.50;99.90
44565;DHT22;30275;51.822;-0.326;2022-10-22T04:24:17;13.40;99.90
44565;DHT22;30275;51.822;-0.326;2022-10-22T04:26:42;13.30;99.90
44565;DHT22;30275;51.822;-0.326;2022-10-22T04:29:08;13.30;99.90
44565;DHT22;30275;51.822;-0.326;2022-10-22T04:31:34;13.20;99.90
44565;DHT22;30275;51.822;-0.326;2022-10-22T04:34:00;13.20;99.90
44565;DHT22;30275;51.822;-0.326;2022-10-22T04:36:27;13.10;99.90
44565;DHT22;30275;51.822;-0.326;2022-10-22T04:38:55;13.10;99.90
44565;DHT22;30275;51.822;-0.326;2022-10-22T04:41:27;13.10;99.90
44565;DHT22;30275;51.822;-0.326;2022-10-22T04:43:53;13.10;99.90
44565;DHT22;30275;51.822;-0.326;2022-10-22T04:46:19;13.00;99.90
44565;DHT22;30275;51.822;-0.326;2022-10-22T04:48:46;13.00;99.90
44565;DHT22;30275;51.822;-0.326;2022-10-22T04:51:14;12.90;99.90
44565;DHT22;30275;51.822;-0.326;2022-10-22T04:53:41;13.00;99.90
44565;DHT22;30275;51.822;-0.326;2022-10-22T04:56:13;12.90;99.90
44565;DHT22;30275;51.822;-0.326;2022-10-22T04:58:41;12.90;99.90
44565;DHT22;30275;51.822;-0.326;2022-10-22T05:01:13;12.90;99.90
44565;DHT22;30275;51.822;-0.326;2022-10-22T05:03:38;12.90;99.90
44565;DHT22;30275;51.822;-0.326;2022-10-22T05:06:05;12.90;99.90
44565;DHT22;30275;51.822;-0.326;2022-10-22T05:08:30;12.90;99.90
44565;DHT22;30275;51.822;-0.326;2022-10-22T05:10:56;12.90;99.90
44565;DHT22;30275;51.822;-0.326;2022-10-22T05:13:22;12.90;99.90
44565;DHT22;30275;51.822;-0.326;2022-10-22T05:15:47;12.80;99.90
44565;DHT22;30275;51.822;-0.326;2022-10-22T05:18:13;12.80;99.90
44565;DHT22;30275;51.822;-0.326;2022-10-22T05:20:39;12.70;99.90
44565;DHT22;30275;51.822;-0.326;2022-10-22T05:23:05;12.70;99.90
44565;DHT22;30275;51.822;-0.326;2022-10-22T05:25:31;12.70;99.90
44565;DHT22;30275;51.822;-0.326;2022-10-22T05:27:56;12.70;99.90
44565;DHT22;30275;51.822;-0.326;2022-10-22T05:30:22;12.60;99.90
44565;DHT22;30275;51.822;-0.326;2022-10-22T05:32:48;12.60;99.90
44565;DHT22;30275;51.822;-0.326;2022-10-22T05:35:13;12.50;99.90
44565;DHT22;30275;51.822;-0.326;2022-10-22T05:37:39;12.50;99.90
44565;DHT22;30275;51.822;-0.326;2022-10-22T05:40:05;12.40;99.90
44565;DHT22;30275;51.822;-0.326;2022-10-22T05:42:31;12.40;99.90
44565;DHT22;30275;51.822;-0.326;2022-10-22T05:44:57;12.40;99.90
44565;DHT22;30275;51.822;-0.326;2022-10-22T05:47:22;12.40;99.90
44565;DHT22;30275;51.822;-0.326;2022-10-22T05:49:48;12.30;99.90
44565;DHT22;30275;51.822;-0.326;2022-10-22T05:52:14;12.30;99.90
44565;DHT22;30275;51.822;-0.326;2022-10-22T05:54:39;12.20;99.90
44565;DHT22;30275;51.822;-0.326;2022-10-22T05:57:05;12.20;99.90
44565;DHT22;30275;51.822;-0.326;2022-10-22T05:59:31;12.20;99.90
44565;DHT22;30275;51.822;-0.326;2022-10-22T06:01:56;12.10;99.90
44565;DHT22;30275;51.822;-0.326;2022-10-22T06:04:22;12.10;99.90
44565;DHT22;30275;51.822;-0.326;2022-10-22T06:06:52;12.00;99.90
44565;DHT22;30275;51.822;-0.326;2022-10-22T06:09:30;12.00;99.90
44565;DHT22;30275;51.822;-0.326;2022-10-22T06:11:57;12.00;99.90
44565;DHT22;30275;51.822;-0.326;2022-10-22T06:14:24;11.90;99.90
44565;DHT22;30275;51.822;-0.326;2022-10-22T06:16:50;11.90;99.90
44565;DHT22;30275;51.822;-0.326;2022-10-22T06:19:19;11.90;99.90
44565;DHT22;30275;51.822;-0.326;2022-10-22T06:21:45;11.90;99.90
44565;DHT22;30275;51.822;-0.326;2022-10-22T06:24:11;11.80;99.90
44565;DHT22;30275;51.822;-0.326;2022-10-22T06:26:37;11.80;99.90
44565;DHT22;30275;51.822;-0.326;2022-10-22T06:29:03;11.80;99.90
44565;DHT22;30275;51.822;-0.326;2022-10-22T06:31:29;11.80;99.90
44565;DHT22;30275;51.822;-0.326;2022-10-22T06:34:02;11.80;99.90
44565;DHT22;30275;51.822;-0.326;2022-10-22T06:36:27;11.80;99.90
44565;DHT22;30275;51.822;-0.326;2022-10-22T06:38:54;11.80;99.90
44565;DHT22;30275;51.822;-0.326;2022-10-22T06:41:21;11.80;99.90
44565;DHT22;30275;51.822;-0.326;2022-10-22T06:43:46;11.80;99.90
44565;DHT22;30275;51.822;-0.326;2022-10-22T06:46:15;11.90;99.90
44565;DHT22;30275;51.822;-0.326;2022-10-22T06:48:41;11.90;99.90
44565;DHT22;30275;51.822;-0.326;2022-10-22T06:51:10;11.90;99.90
44565;DHT22;30275;51.822;-0.326;2022-10-22T06:53:36;11.80;99.90
44565;DHT22;30275;51.822;-0.326;2022-10-22T06:56:13;11.90;99.90
44565;DHT22;30275;51.822;-0.326;2022-10-22T06:58:39;11.80;99.90
44565;DHT22;30275;51.822;-0.326;2022-10-22T07:01:07;11.80;99.90
44565;DHT22;30275;51.822;-0.326;2022-10-22T07:03:34;11.80;99.90
44565;DHT22;30275;51.822;-0.326;2022-10-22T07:06:01;11.90;99.90
44565;DHT22;30275;51.822;-0.326;2022-10-22T07:08:27;11.90;99.90
44565;DHT22;30275;51.822;-0.326;2022-10-22T07:10:54;11.90;99.90
44565;DHT22;30275;51.822;-0.326;2022-10-22T07:13:20;11.90;99.90
44565;DHT22;30275;51.822;-0.326;2022-10-22T07:15:52;12.00;99.90
44565;DHT22;30275;51.822;-0.326;2022-10-22T07:18:19;12.00;99.90
44565;DHT22;30275;51.822;-0.326;2022-10-22T07:20:46;12.10;99.90
44565;DHT22;30275;51.822;-0.326;2022-10-22T07:23:12;12.00;99.90
44565;DHT22;30275;51.822;-0.326;2022-10-22T07:25:38;12.00;99.90
44565;DHT22;30275;51.822;-0.326;2022-10-22T07:28:03;12.10;99.90
44565;DHT22;30275;51.822;-0.326;2022-10-22T07:30:29;12.10;99.90
44565;DHT22;30275;51.822;-0.326;2022-10-22T07:32:55;12.10;99.90
44565;DHT22;30275;51.822;-0.326;2022-10-22T07:35:20;12.10;99.90
44565;DHT22;30275;51.822;-0.326;2022-10-22T07:37:46;12.10;99.90
44565;DHT22;30275;51.822;-0.326;2022-10-22T07:40:11;12.10;99.90
44565;DHT22;30275;51.822;-0.326;2022-10-22T07:42:37;12.10;99.90
44565;DHT22;30275;51.822;-0.326;2022-10-22T07:45:03;12.10;99.90
44565;DHT22;30275;51.822;-0.326;2022-10-22T07:47:28;12.10;99.90
44565;DHT22;30275;51.822;-0.326;2022-10-22T07:49:54;12.10;99.90
44565;DHT22;30275;51.822;-0.326;2022-10-22T07:52:20;12.00;99.90
44565;DHT22;30275;51.822;-0.326;2022-10-22T07:54:45;12.00;99.90
44565;DHT22;30275;51.822;-0.326;2022-10-22T07:57:11;12.00;99.90
44565;DHT22;30275;51.822;-0.326;2022-10-22T07:59:36;12.00;99.90
44565;DHT22;30275;51.822;-0.326;2022-10-22T08:02:02;12.00;99.90
44565;DHT22;30275;51.822;-0.326;2022-10-22T08:04:28;12.10;99.90
44565;DHT22;30275;51.822;-0.326;2022-10-22T08:06:53;12.10;99.90
44565;DHT22;30275;51.822;-0.326;2022-10-22T08:09:19;12.20;99.90
44565;DHT22;30275;51.822;-0.326;2022-10-22T08:11:45;12.30;99.90
44565;DHT22;30275;51.822;-0.326;2022-10-22T08:14:11;12.60;99.90
44565;DHT22;30275;51.822;-0.326;2022-10-22T08:16:37;12.70;99.90
44565;DHT22;30275;51.822;-0.326;2022-10-22T08:19:02;12.60;99.90
44565;DHT22;30275;51.822;-0.326;2022-10-22T08:21:28;12.60;99.90
44565;DHT22;30275;51.822;-0.326;2022-10-22T08:23:54;12.60;99.90
44565;DHT22;30275;51.822;-0.326;2022-10-22T08:26:19;12.80;99.90
44565;DHT22;30275;51.822;-0.326;2022-10-22T08:28:45;13.00;99.90
44565;DHT22;30275;51.822;-0.326;2022-10-22T08:31:11;13.20;99.90
44565;DHT22;30275;51.822;-0.326;2022-10-22T08:33:37;13.30;99.90
44565;DHT22;30275;51.822;-0.326;2022-10-22T08:36:03;13.30;99.90
44565;DHT22;30275;51.822;-0.326;2022-10-22T08:38:29;13.40;99.90
44565;DHT22;30275;51.822;-0.326;2022-10-22T08:41:31;13.50;99.90
44565;DHT22;30275;51.822;-0.326;2022-10-22T08:49:37;15.00;99.90
44565;DHT22;30275;51.822;-0.326;2022-10-22T08:52:04;15.80;99.90
44565;DHT22;30275;51.822;-0.326;2022-10-22T08:55:14;16.90;99.90
44565;DHT22;30275;51.822;-0.326;2022-10-22T08:58:00;18.50;99.90
44565;DHT22;30275;51.822;-0.326;2022-10-22T09:00:44;18.90;99.90
44565;DHT22;30275;51.822;-0.326;2022-10-22T09:08:30;17.60;99.90
44565;DHT22;30275;51.822;-0.326;2022-10-22T09:11:10;17.40;99.90
44565;DHT22;30275;51.822;-0.326;2022-10-22T09:13:41;18.20;99.90
44565;DHT22;30275;51.822;-0.326;2022-10-22T09:16:17;19.30;99.90
44565;DHT22;30275;51.822;-0.326;2022-10-22T09:18:59;19.40;99.90
44565;DHT22;30275;51.822;-0.326;2022-10-22T09:24:38;20.30;99.90
44565;DHT22;30275;51.822;-0.326;2022-10-22T09:27:18;20.40;99.90
44565;DHT22;30275;51.822;-0.326;2022-10-22T09:29:45;21.40;99.90
44565;DHT22;30275;51.822;-0.326;2022-10-22T09:32:12;21.80;99.90
44565;DHT22;30275;51.822;-0.326;2022-10-22T09:34:38;22.40;99.90
44565;DHT22;30275;51.822;-0.326;2022-10-22T09:37:09;23.60;99.90
44565;DHT22;30275;51.822;-0.326;2022-10-22T09:39:47;22.80;97.30
44565;DHT22;30275;51.822;-0.326;2022-10-22T09:42:16;21.50;99.90
44565;DHT22;30275;51.822;-0.326;2022-10-22T09:44:42;21.70;99.90
44565;DHT22;30275;51.822;-0.326;2022-10-22T09:47:33;21.00;99.90
44565;DHT22;30275;51.822;-0.326;2022-10-22T09:50:23;20.00;99.90
44565;DHT22;30275;51.822;-0.326;2022-10-22T09:53:05;19.50;99.90
44565;DHT22;30275;51.822;-0.326;2022-10-22T09:55:37;18.60;99.90
44565;DHT22;30275;51.822;-0.326;2022-10-22T09:58:03;17.90;99.90
44565;DHT22;30275;51.822;-0.326;2022-10-22T10:00:29;17.60;99.90
44565;DHT22;30275;51.822;-0.326;2022-10-22T10:02:56;18.00;99.90
44565;DHT22;30275;51.822;-0.326;2022-10-22T10:05:32;17.90;99.90
44565;DHT22;30275;51.822;-0.326;2022-10-22T10:08:01;17.60;99.90
44565;DHT22;30275;51.822;-0.326;2022-10-22T10:10:47;16.70;99.90
44565;DHT22;30275;51.822;-0.326;2022-10-22T10:19:37;15.90;99.90
44565;DHT22;30275;51.822;-0.326;2022-10-22T10:25:03;16.60;99.90
44565;DHT22;30275;51.822;-0.326;2022-10-22T10:27:38;16.80;99.90
44565;DHT22;30275;51.822;-0.326;2022-10-22T10:33:06;17.70;99.90
44565;DHT22;30275;51.822;-0.326;2022-10-22T10:35:46;19.30;99.90
44565;DHT22;30275;51.822;-0.326;2022-10-22T10:41:32;19.80;99.90
44565;DHT22;30275;51.822;-0.326;2022-10-22T10:46:49;20.40;99.90
44565;DHT22;30275;51.822;-0.326;2022-10-22T10:49:19;20.80;99.90
44565;DHT22;30275;51.822;-0.326;2022-10-22T10:55:19;19.90;99.90
44565;DHT22;30275;51.822;-0.326;2022-10-22T10:57:48;20.00;99.90
44565;DHT22;30275;51.822;-0.326;2022-10-22T11:00:20;19.50;99.90
44565;DHT22;30275;51.822;-0.326;2022-10-22T11:05:31;19.60;99.90
44565;DHT22;30275;51.822;-0.326;2022-10-22T11:08:08;20.40;99.90
44565;DHT22;30275;51.822;-0.326;2022-10-22T11:15:56;20.80;99.90
44565;DHT22;30275;51.822;-0.326;2022-10-22T11:18:46;20.60;99.90
44565;DHT22;30275;51.822;-0.326;2022-10-22T11:21:38;19.20;99.90
44565;DHT22;30275;51.822;-0.326;2022-10-22T11:24:27;18.80;99.90
44565;DHT22;30275;51.822;-0.326;2022-10-22T11:27:03;18.90;99.90
44565;DHT22;30275;51.822;-0.326;2022-10-22T11:29:36;19.50;99.90
44565;DHT22;30275;51.822;-0.326;2022-10-22T11:32:10;20.10;99.90
44565;DHT22;30275;51.822;-0.326;2022-10-22T11:34:44;21.00;99.90
44565;DHT22;30275;51.822;-0.326;2022-10-22T11:37:12;20.40;99.90
44565;DHT22;30275;51.822;-0.326;2022-10-22T11:39:47;19.40;99.90
44565;DHT22;30275;51.822;-0.326;2022-10-22T11:45:03;19.70;99.90
44565;DHT22;30275;51.822;-0.326;2022-10-22T11:47:34;20.40;99.90
44565;DHT22;30275;51.822;-0.326;2022-10-22T11:50:20;20.40;99.90
44565;DHT22;30275;51.822;-0.326;2022-10-22T11:53:16;20.70;99.90
44565;DHT22;30275;51.822;-0.326;2022-10-22T11:55:45;20.80;99.90
44565;DHT22;30275;51.822;-0.326;2022-10-22T11:58:28;20.90;99.90
44565;DHT22;30275;51.822;-0.326;2022-10-22T12:16:37;18.90;99.90
44565;DHT22;30275;51.822;-0.326;2022-10-22T12:21:37;18.00;99.90
44565;DHT22;30275;51.822;-0.326;2022-10-22T12:24:04;18.00;99.90
44565;DHT22;30275;51.822;-0.326;2022-10-22T12:26:31;18.20;99.90
44565;DHT22;30275;51.822;-0.326;2022-10-22T12:29:02;18.10;99.90
44565;DHT22;30275;51.822;-0.326;2022-10-22T12:31:28;17.70;99.90
44565;DHT22;30275;51.822;-0.326;2022-10-22T12:34:00;18.40;99.90
44565;DHT22;30275;51.822;-0.326;2022-10-22T12:36:30;19.00;99.90
44565;DHT22;30275;51.822;-0.326;2022-10-22T12:39:03;19.10;99.90
44565;DHT22;30275;51.822;-0.326;2022-10-22T12:41:34;18.80;99.90
44565;DHT22;30275;51.822;-0.326;2022-10-22T12:44:01;18.30;99.90
44565;DHT22;30275;51.822;-0.326;2022-10-22T12:46:29;18.20;99.90
44565;DHT22;30275;51.822;-0.326;2022-10-22T12:48:59;17.70;99.90
44565;DHT22;30275;51.822;-0.326;2022-10-22T12:51:25;17.60;99.90
44565;DHT22;30275;51.822;-0.326;2022-10-22T12:53:57;17.70;99.90
44565;DHT22;30275;51.822;-0.326;2022-10-22T12:56:28;17.70;99.90
44565;DHT22;30275;51.822;-0.326;2022-10-22T12:58:59;17.70;99.90
44565;DHT22;30275;51.822;-0.326;2022-10-22T13:01:37;17.70;99.90
44565;DHT22;30275;51.822;-0.326;2022-10-22T13:04:36;17.70;99.90
44565;DHT22;30275;51.822;-0.326;2022-10-22T13:09:47;17.80;99.90
44565;DHT22;30275;51.822;-0.326;2022-10-22T13:12:26;17.80;99.90
44565;DHT22;30275;51.822;-0.326;2022-10-22T13:14:52;18.00;99.90
44565;DHT22;30275;51.822;-0.326;2022-10-22T13:17:38;18.10;99.90
44565;DHT22;30275;51.822;-0.326;2022-10-22T13:20:22;18.00;99.90
44565;DHT22;30275;51.822;-0.326;2022-10-22T13:27:59;18.00;99.90
44565;DHT22;30275;51.822;-0.326;2022-10-22T13:32:59;18.10;99.90
44565;DHT22;30275;51.822;-0.326;2022-10-22T13:35:28;17.90;99.90
44565;DHT22;30275;51.822;-0.326;2022-10-22T13:37:56;18.00;99.90
44565;DHT22;30275;51.822;-0.326;2022-10-22T13:40:22;17.90;99.90
44565;DHT22;30275;51.822;-0.326;2022-10-22T13:42:48;18.00;99.90
44565;DHT22;30275;51.822;-0.326;2022-10-22T13:45:14;17.90;99.90
44565;DHT22;30275;51.822;-0.326;2022-10-22T13:47:39;17.70;99.90
44565;DHT22;30275;51.822;-0.326;2022-10-22T13:50:13;17.90;99.90
44565;DHT22;30275;51.822;-0.326;2022-10-22T13:52:51;17.90;99.90
44565;DHT22;30275;51.822;-0.326;2022-10-22T13:57:50;17.80;99.90
44565;DHT22;30275;51.822;-0.326;2022-10-22T14:00:19;17.90;99.90
44565;DHT22;30275;51.822;-0.326;2022-10-22T14:02:47;17.90;99.90
44565;DHT22;30275;51.822;-0.326;2022-10-22T14:05:15;17.90;99.90
44565;DHT22;30275;51.822;-0.326;2022-10-22T14:07:41;18.00;99.90
44565;DHT22;30275;51.822;-0.326;2022-10-22T14:10:15;18.20;99.90
44565;DHT22;30275;51.822;-0.326;2022-10-22T14:12:41;18.10;99.90
44565;DHT22;30275;51.822;-0.326;2022-10-22T14:15:09;18.00;99.90
44565;DHT22;30275;51.822;-0.326;2022-10-22T14:17:35;18.10;99.90
44565;DHT22;30275;51.822;-0.326;2022-10-22T14:20:02;18.00;99.90
44565;DHT22;30275;51.822;-0.326;2022-10-22T14:22:28;17.80;99.90
44565;DHT22;30275;51.822;-0.326;2022-10-22T14:24:54;17.90;99.90
44565;DHT22;30275;51.822;-0.326;2022-10-22T14:27:20;18.00;99.90
44565;DHT22;30275;51.822;-0.326;2022-10-22T14:29:46;17.90;99.90
44565;DHT22;30275;51.822;-0.326;2022-10-22T14:32:13;17.70;99.90
44565;DHT22;30275;51.822;-0.326;2022-10-22T14:34:39;17.80;99.90
44565;DHT22;30275;51.822;-0.326;2022-10-22T14:37:16;17.70;99.90
44565;DHT22;30275;51.822;-0.326;2022-10-22T14:39:42;17.60;99.90
44565;DHT22;30275;51.822;-0.326;2022-10-22T14:42:12;17.50;99.90
44565;DHT22;30275;51.822;-0.326;2022-10-22T14:44:39;17.40;99.90
44565;DHT22;30275;51.822;-0.326;2022-10-22T14:47:04;17.50;99.90
44565;DHT22;30275;51.822;-0.326;2022-10-22T14:49:30;17.40;99.90
44565;DHT22;30275;51.822;-0.326;2022-10-22T14:51:56;17.30;99.90
44565;DHT22;30275;51.822;-0.326;2022-10-22T14:54:21;17.20;99.90
44565;DHT22;30275;51.822;-0.326;2022-10-22T14:56:47;17.10;99.90
44565;DHT22;30275;51.822;-0.326;2022-10-22T14:59:12;17.20;99.90
44565;DHT22;30275;51.822;-0.326;2022-10-22T15:01:38;17.20;99.90
44565;DHT22;30275;51.822;-0.326;2022-10-22T15:04:04;17.20;99.90
44565;DHT22;30275;51.822;-0.326;2022-10-22T15:06:30;17.10;99.90
44565;DHT22;30275;51.822;-0.326;2022-10-22T15:08:55;17.00;99.90
44565;DHT22;30275;51.822;-0.326;2022-10-22T15:11:21;17.10;99.90
44565;DHT22;30275;51.822;-0.326;2022-10-22T15:13:47;17.00;99.90
44565;DHT22;30275;51.822;-0.326;2022-10-22T15:16:14;17.00;99.90
44565;DHT22;30275;51.822;-0.326;2022-10-22T15:18:41;16.90;99.90
44565;DHT22;30275;51.822;-0.326;2022-10-22T15:21:14;16.80;99.90
44565;DHT22;30275;51.822;-0.326;2022-10-22T15:23:43;16.70;99.90
44565;DHT22;30275;51.822;-0.326;2022-10-22T15:26:11;16.60;99.90
44565;DHT22;30275;51.822;-0.326;2022-10-22T15:28:38;16.50;99.90
44565;DHT22;30275;51.822;-0.326;2022-10-22T15:31:04;16.40;99.90
44565;DHT22;30275;51.822;-0.326;2022-10-22T15:33:30;16.50;99.90
44565;DHT22;30275;51.822;-0.326;2022-10-22T15:35:57;16.40;99.90
44565;DHT22;30275;51.822;-0.326;2022-10-22T15:38:29;16.20;99.90
44565;DHT22;30275;51.822;-0.326;2022-10-22T15:41:02;16.20;99.90
44565;DHT22;30275;51.822;-0.326;2022-10-22T15:43:29;16.20;99.90
44565;DHT22;30275;51.822;-0.326;2022-10-22T15:46:12;16.20;99.90
44565;DHT22;30275;51.822;-0.326;2022-10-22T15:48:38;16.10;99.90
44565;DHT22;30275;51.822;-0.326;2022-10-22T15:51:13;16.10;99.90
44565;DHT22;30275;51.822;-0.326;2022-10-22T15:53:39;16.10;99.90
44565;DHT22;30275;51.822;-0.326;2022-10-22T15:56:05;16.00;99.90
44565;DHT22;30275;51.822;-0.326;2022-10-22T15:58:31;16.00;99.90
44565;DHT22;30275;51.822;-0.326;2022-10-22T16:01:08;15.90;99.90
44565;DHT22;30275;51.822;-0.326;2022-10-22T16:03:34;16.00;99.90
44565;DHT22;30275;51.822;-0.326;2022-10-22T16:06:00;16.00;99.90
44565;DHT22;30275;51.822;-0.326;2022-10-22T16:08:27;15.90;99.90
44565;DHT22;30275;51.822;-0.326;2022-10-22T16:10:52;15.80;99.90
44565;DHT22;30275;51.822;-0.326;2022-10-22T16:13:19;15.80;99.90
44565;DHT22;30275;51.822;-0.326;2022-10-22T16:15:49;15.80;99.90
44565;DHT22;30275;51.822;-0.326;2022-10-22T16:18:16;15.80;99.90
44565;DHT22;30275;51.822;-0.326;2022-10-22T16:20:41;15.80;99.90
44565;DHT22;30275;51.822;-0.326;2022-10-22T16:23:07;15.80;99.90
44565;DHT22;30275;51.822;-0.326;2022-10-22T16:25:44;15.80;99.90
44565;DHT22;30275;51.822;-0.326;2022-10-22T16:28:11;15.70;99.90
44565;DHT22;30275;51.822;-0.326;2022-10-22T16:30:37;15.60;99.90
44565;DHT22;30275;51.822;-0.326;2022-10-22T16:33:05;15.50;99.90
44565;DHT22;30275;51.822;-0.326;2022-10-22T16:35:31;15.50;99.90
44565;DHT22;30275;51.822;-0.326;2022-10-22T16:38:00;15.40;99.90
44565;DHT22;30275;51.822;-0.326;2022-10-22T16:40:26;15.40;99.90
44565;DHT22;30275;51.822;-0.326;2022-10-22T16:42:53;15.40;99.90
44565;DHT22;30275;51.822;-0.326;2022-10-22T16:45:19;15.40;99.90
44565;DHT22;30275;51.822;-0.326;2022-10-22T16:47:44;15.40;99.90
44565;DHT22;30275;51.822;-0.326;2022-10-22T16:50:11;15.30;99.90
44565;DHT22;30275;51.822;-0.326;2022-10-22T16:52:37;15.20;99.90
44565;DHT22;30275;51.822;-0.326;2022-10-22T16:55:03;15.10;99.90
44565;DHT22;30275;51.822;-0.326;2022-10-22T16:57:29;15.10;99.90
44565;DHT22;30275;51.822;-0.326;2022-10-22T16:59:56;15.00;99.90
44565;DHT22;30275;51.822;-0.326;2022-10-22T17:02:22;15.00;99.90
44565;DHT22;30275;51.822;-0.326;2022-10-22T17:04:49;14.90;99.90
44565;DHT22;30275;51.822;-0.326;2022-10-22T17:07:15;14.90;99.90
44565;DHT22;30275;51.822;-0.326;2022-10-22T17:09:41;14.90;99.90
44565;DHT22;30275;51.822;-0.326;2022-10-22T17:12:07;14.80;99.90